• Join FlightAware (Why Join?)
  • Login
  • US Flag 
09:50PM EDT


 

Airport Tracker/Info


-or-


 

Live Flight TrackerFlight Track Log ✈ SWA158 ✈ 30-Apr-2013 ✈ KMDW - KMHT

Flight Track Log - Related Links

Times and Time Zones

All times are in EDT time to prevent confusion due to time zone crossing. See the SWA158 flight status page for this flight to view local times or setup timezone preferences in your user account.

Time Position Orientation Groundspeed Altitude Reporting Facility
EDT Latitude Longitude Course Direction KTS MPH feet Rate Location/Type
02:30PM 41.7833 -87.8000 79° East 203 234 2,700  Level Chicago TRACON
02:31PM 41.8167 -87.7333 56° Northeast 250 288 3,000 1,020 Climbing Chicago TRACON
02:32PM 41.8000 -87.6500 105° East 254 292 4,900 1,320 Climbing Chicago TRACON
02:33PM 41.8042 -87.6025 83° East 260 299 5,000 60 Climbing Chicago Center
02:34PM 41.8139 -87.5047 82° East 264 304 5,000 60 Level Chicago Center
02:35PM 41.8214 -87.4058 84° East 266 306 5,200 1,620 Climbing Chicago Center
02:36PM 41.9098 -86.8659 79° East  Level Estimated
02:36PM 41.8028 -87.3014 103° East 290 334 8,400  Level Chicago Center
02:37PM 41.7839 -87.1869 102° East 312 359 11,200 2,820 Climbing Chicago Center
02:38PM 41.7614 -87.0511 102° East 374 430 14,300 3,360 Climbing Chicago Center
02:39PM 41.7642 -86.8758 89° East 397 457 18,200 3,300 Climbing Chicago Center
02:40PM 41.7653 -86.7267 89° East 401 461 21,200 2,700 Climbing Chicago Center
02:41PM 41.7658 -86.5781 90° East 413 475 23,800 2,400 Climbing Chicago Center
02:42PM 41.7672 -86.4219 89° East 419 482 26,200 2,460 Climbing Chicago Center
02:43PM 41.7772 -86.2650 85° East 425 489 28,900 1,740 Climbing Chicago Center
02:44PM 41.8103 -86.0753 77° East 439 505 29,900 1,560 Climbing Chicago Center
02:45PM 41.8378 -85.9100 77° East 452 520 32,200 1,800 Climbing Chicago Center
02:46PM 41.8667 -85.7456 77° East 451 519 33,700 1,560 Climbing Chicago Center
02:47PM 41.8944 -85.5792 77° East 451 519 35,500 1,620 Climbing Chicago Center
02:48PM 41.9219 -85.4142 77° East 448 516 37,100 1,260 Climbing Chicago Center
02:49PM 41.9472 -85.2769 76° East 444 511 37,900 960 Climbing Cleveland Center
02:50PM 41.9542 -85.1069 87° East 444 511 38,900 540 Climbing Cleveland Center
02:51PM 41.9544 -84.9394 90° East 444 511 39,000  Climbing Cleveland Center
02:52PM 41.9522 -84.7689 91° East 450 518 39,000  Level Cleveland Center
02:53PM 41.9519 -84.6042 90° East 450 518 39,000  Level Cleveland Center
02:54PM 41.9475 -84.4306 92° East 450 518 39,000  Level Cleveland Center
02:55PM 41.9411 -84.2431 93° East 455 524 39,000  Level Cleveland Center
02:56PM 41.9383 -84.0697 91° East 461 531 39,000  Level Cleveland Center
02:57PM 41.9369 -83.8994 91° East 461 531 39,000  Level Cleveland Center
02:58PM 41.9356 -83.7319 91° East 455 524 39,000  Level Cleveland Center
02:59PM 41.9336 -83.5644 91° East 450 518 39,000  Level Cleveland Center
03:00PM 41.9547 -83.3950 80° East 450 518 39,000  Level Cleveland Center
03:01PM 41.9753 -83.2311 80° East 450 518 39,000  Level Cleveland Center
03:02PM 41.9936 -83.0669 81° East 443 510 39,000  Level Cleveland Center
03:03PM 42.0133 -82.9222 80° East 438 504 39,000  Level Cleveland Center
03:04PM 42.0331 -82.7608 81° East 438 504 39,000  Level Cleveland Center
03:05PM 42.0486 -82.5992 83° East 438 504 39,000  Level Cleveland Center
03:06PM 42.0700 -82.4350 80° East 443 510 39,000 -120 Level Cleveland Center
03:07PM 42.0956 -82.2733 78° East 424 488 38,800 -540 Descending Cleveland Center
03:08PM 42.1414 -82.1150 69° East 431 496 38,000 -600 Descending Cleveland Center
03:09PM 42.1869 -81.9786 66° East 404 465 37,700 -540 Descending Cleveland Center
03:10PM 42.2325 -81.8339 67° East 409 471 37,000 -360 Descending Cleveland Center
03:11PM 42.2736 -81.6858 69° East 415 478 37,000  Level Cleveland Center
03:12PM 42.2875 -81.5261 83° East 415 478 37,000  Level Cleveland Center
03:13PM 42.3033 -81.3636 82° East 425 489 37,000  Level Cleveland Center
03:14PM 42.3167 -81.2036 84° East 425 489 37,000  Level Cleveland Center
03:15PM 42.3278 -81.0633 84° East 425 489 37,000  Level Cleveland Center
03:16PM 42.3431 -80.9033 83° East 425 489 37,000  Level Cleveland Center
03:17PM 42.3581 -80.7433 83° East 425 489 37,000  Level Cleveland Center
03:18PM 42.3728 -80.5858 83° East 425 489 37,000  Level Cleveland Center
03:19PM 42.3850 -80.4258 84° East 425 489 37,000  Level Cleveland Center
03:20PM 42.3992 -80.2514 84° East 425 489 37,000  Level Cleveland Center
03:21PM 42.4133 -80.0911 83° East 425 489 37,000  Level Cleveland Center
03:22PM 42.4250 -79.9306 84° East 425 489 37,000  Level Cleveland Center
03:23PM 42.4386 -79.7731 83° East 425 489 37,000  Level Cleveland Center
03:24PM 42.4500 -79.6153 84° East 425 489 37,000  Level Cleveland Center
03:25PM 42.4653 -79.4603 82° East 425 489 37,000  Level Cleveland Center
03:26PM 42.4761 -79.2994 85° East 425 489 37,000  Level Cleveland Center
03:27PM 42.4867 -79.1417 85° East 425 489 37,000  Level Cleveland Center
03:28PM 42.4992 -78.9781 84° East 425 489 37,000  Level Cleveland Center
03:29PM 42.5092 -78.8172 85° East 425 489 37,000  Level Cleveland Center
03:30PM 42.5214 -78.6619 84° East 425 489 37,000  Level Cleveland Center
03:31PM 42.5311 -78.4981 85° East 425 489 37,000  Level Cleveland Center
03:32PM 42.5428 -78.3400 84° East 425 489 37,000  Level Cleveland Center
03:33PM 42.5519 -78.1761 86° East 425 489 37,000  Level Cleveland Center
03:34PM 42.5628 -78.0122 85° East 425 489 37,000  Level Cleveland Center
03:35PM 42.5717 -77.8511 86° East 425 489 37,000  Level Cleveland Center
03:36PM 42.5825 -77.6928 85° East 425 489 37,000 -660 Level Cleveland Center
03:38PM 42.6000 -77.3686 86° East 436 502 35,100 -660 Descending Boston Center
03:39PM 42.6108 -77.2086 85° East 430 495 35,000 -60 Descending Boston Center
03:40PM 42.6194 -77.0514 86° East 423 487 35,000  Level Boston Center
03:41PM 42.6281 -76.8881 86° East 423 487 35,000  Level Boston Center
03:42PM 42.6364 -76.7250 86° East 423 487 35,000  Level Boston Center
03:43PM 42.6447 -76.5589 86° East 428 493 35,000  Level Boston Center
03:44PM 42.6525 -76.3956 86° East 433 498 35,000  Level Boston Center
03:45PM 42.6603 -76.2294 86° East 440 506 35,000  Level Boston Center
03:46PM 42.6678 -76.0606 86° East 440 506 35,000  Level Boston Center
03:47PM 42.6753 -75.8942 86° East 440 506 35,000  Level Boston Center
03:48PM 42.6842 -75.7336 86° East 440 506 35,000  Level Boston Center
03:49PM 42.6889 -75.5672 88° East 440 506 35,000  Level Boston Center
03:50PM 42.6958 -75.3839 87° East 440 506 35,000  Level Boston Center
03:51PM 42.7019 -75.2203 87° East 440 506 35,000  Level Boston Center
03:52PM 42.7081 -75.0539 87° East 440 506 35,000 -300 Level Boston Center
03:53PM 42.7158 -74.8844 86° East 440 506 34,500 -1,260 Descending Boston Center
03:54PM 42.7214 -74.7181 87° East 440 506 32,500 -2,100 Descending Boston Center
03:55PM 42.7242 -74.5853 88° East 440 506 30,300 -1,980 Descending Boston Center
03:56PM 42.7317 -74.3933 87° East 440 506 28,600 -1,380 Descending Boston Center
03:57PM 42.7344 -74.2294 89° East 435 501 27,600 -960 Descending Boston Center
03:58PM 42.7389 -74.0683 88° East 435 501 26,700 -960 Descending Boston Center
03:59PM 42.7433 -73.9017 88° East 435 501 25,700 -1,020 Descending Boston Center
04:00PM 42.7514 -73.7350 86° East 435 501 24,700 -900 Descending Boston Center
04:01PM 42.7575 -73.5739 87° East 435 501 23,900 -900 Descending Boston Center
04:02PM 42.7631 -73.4128 87° East 435 501 23,000 -1,020 Descending Boston Center
04:03PM 42.7686 -73.2461 87° East 435 501 21,900 -1,020 Descending Boston Center
04:04PM 42.7736 -73.0878 87° East 435 501 21,000 -480 Descending Boston Center
04:05PM 42.7767 -72.9322 88° East 430 495 21,000 -60 Level Boston Center
04:06PM 42.7833 -72.7767 87° East 430 495 20,900 -1,500 Descending Boston Center
04:07PM 42.7878 -72.6156 88° East 410 472 18,000 -2,820 Descending Boston Center
04:08PM 42.7900 -72.4683 89° East 395 455 15,300 -2,760 Descending Boston Center
04:09PM 42.7942 -72.3183 88° East 388 447 12,500 -2,580 Descending Boston Center
04:10PM 42.8022 -72.1769 86° East 377 434 10,200 -1,260 Descending Boston Center
04:11PM 42.8125 -72.0722 82° East 338 389 10,000 -840 Descending Boston Center
04:12PM 42.8244 -71.9589 82° East 285 328 8,600 -1,260 Descending Boston Center
04:13PM 42.8617 -71.8822 56° Northeast 262 302 7,500 -1,320 Descending Boston Center
04:14PM 42.9028 -71.7911 58° Northeast 257 296 6,000 -1,440 Descending Boston Center
04:15PM 42.9400 -71.7142 57° Northeast 257 296 4,700 -1,260 Descending Boston Center
04:16PM 42.9831 -71.6228 57° Northeast 257 296 3,500 -720 Descending Boston Center
04:17PM 43.0139 -71.5597 56° Northeast 242 278 3,300 -720 Descending Boston Center
04:18PM 43.0197 -71.4917 83° East 167 192 2,100 -1,080 Descending Boston Center
04:19PM 42.9861 -71.4694 154° Southeast 125 144 1,200 -900 Descending Boston Center
04:20PM 42.9483 -71.4417 152° Southeast 131 151 400 -480 Descending Boston Center
04:21PM 42.9189 -71.4222 154° Southeast 131 151 300 9,300 Descending Boston Center
04:22PM 42.8875 -71.4000 153° Southeast 131 151 19,000 9,300 Climbing Boston Center
04:23PM 42.8561 -71.3808 156° South 131 151 19,000  Level Boston Center
04:24PM 42.8247 -71.3586 153° Southeast 131 151 19,000  Level Boston Center
04:26PM 42.9167 -71.4333 316° Northwest  Level FlightAware Approximate
04:33PM 42.9328 -71.4358 316° Northwest  Level Estimated
04:34PM 42.9328 -71.4358 316° Northwest  Level Estimated
04:35PM 42.9328 -71.4358 316° Northwest  Level Estimated
04:36PM 42.9328 -71.4358 316° Northwest  Level Estimated
04:37PM 42.9328 -71.4358 316° Northwest  Level Estimated